Puerto Banus, Marbella

>

This is an optional block (switch it off / on) in the settings - file ($SITE['banners'] = false;)

You can display ads, any other important text or photo’s using text / html or PHP code.

You can place one or more at the top and or bottom and it can all be different for content / size .



Meteosat more information blitzortung!


Radar lluvias  rain snow radar


Visita nuestra red de sitios de meteo:

Documentation for the template used

MeteoibericaRed estaciones Meteorologicas

MeteoclimaticRed estaciones Meteorologicas



Sin Advertencias climatologicas .En este momento tenemos Nivel Verde.    No hay Alarmas

Pagina Historial Weather Underground texto

Diario Resumen January 4, 2017 Unidades:  Métrico    impérial   Tanto
« Anterior Dia
Siguiente Dia »
Diario Semana Mensual Anual Personalizada
  Maxima: Minima: Media:
Temperatura: -17.8 °C -11.3 °C -9.7 °C
Punto de rocío: -17.8 °C -15.1 °C -13.3 °C
Humedad: Humidity % 48 % 65 %
Velocidad del Viento: 0 km/h 0 km/h 15.6 km/h
Ráfagas de viento: 0 km/h - -
Viento:- - West
Pression baro: 0 hPa 34645.6 hPa -
Précipitaciones: 0 mm    
Historical Graphs
 
 
Datos de tabla para January 4, 2017
Tiempo Temperatura Punto de rocío Pression baro Viento Velocidad del Viento Ráfagas de viento Humedad Las precipitaciones Rate ( Hora )
-17.8 °C -17.8 °C 0 hPa Calm     Humidity % 0 mm
00:02 -10.6 °C -13.4 °C 34750.5 hPa North 23.8 km/h 23.8 km/h 71 % 0 mm
00:07 -10.6 °C -13.4 °C 34750.5 hPa North 23.8 km/h 23.8 km/h 71 % 0 mm
00:12 -10.6 °C -13.6 °C 34750.5 hPa North 20.9 km/h 20.9 km/h 70 % 0 mm
00:17 -10.7 °C -13.6 °C 34750.5 hPa North 26.9 km/h 26.9 km/h 70 % 0 mm
00:22 -10.7 °C -13.6 °C 34750.5 hPa North 23.8 km/h 23.8 km/h 70 % 0 mm
00:27 -10.7 °C -13.6 °C 34750.5 hPa North 23.8 km/h 23.8 km/h 70 % 0 mm
00:32 -10.7 °C -13.6 °C 34750.5 hPa North 23.8 km/h 23.8 km/h 70 % 0 mm
00:37 -10.7 °C -13.6 °C 34740.4 hPa North 20.9 km/h 20.9 km/h 70 % 0 mm
00:42 -10.7 °C -13.6 °C 34740.4 hPa North 23.8 km/h 23.8 km/h 70 % 0 mm
00:47 -10.7 °C -13.7 °C 34740.4 hPa North 23.8 km/h 23.8 km/h 70 % 0 mm
00:52 -10.7 °C -13.8 °C 34740.4 hPa North 23.8 km/h 23.8 km/h 69 % 0 mm
00:57 -10.7 °C -13.7 °C 34740.4 hPa North 20.9 km/h 20.9 km/h 70 % 0 mm
01:02 -10.7 °C -13.7 °C 34740.4 hPa North 20.9 km/h 20.9 km/h 70 % 0 mm
01:07 -10.7 °C -13.8 °C 34740.4 hPa North 23.8 km/h 23.8 km/h 69 % 0 mm
01:12 -10.7 °C -13.7 °C 34740.4 hPa North 23.8 km/h 23.8 km/h 70 % 0 mm
01:17 -10.7 °C -13.8 °C 34740.4 hPa North 26.9 km/h 26.9 km/h 69 % 0 mm
01:22 -10.7 °C -13.8 °C 34740.4 hPa North 23.8 km/h 23.8 km/h 69 % 0 mm
01:27 -10.7 °C -13.8 °C 34740.4 hPa North 23.8 km/h 23.8 km/h 69 % 0 mm
01:32 -10.7 °C -13.8 °C 34726.8 hPa North 29.8 km/h 29.8 km/h 69 % 0 mm
01:37 -10.7 °C -13.8 °C 34726.8 hPa North 20.9 km/h 20.9 km/h 68 % 0 mm
01:42 -10.7 °C -13.8 °C 34726.8 hPa NNW 23.8 km/h 23.8 km/h 68 % 0 mm
01:47 -10.7 °C -13.8 °C 34726.8 hPa NNW 29.8 km/h 29.8 km/h 68 % 0 mm
01:52 -10.7 °C -13.8 °C 34726.8 hPa North 26.9 km/h 26.9 km/h 68 % 0 mm
01:57 -10.7 °C -13.9 °C 34726.8 hPa North 23.8 km/h 23.8 km/h 68 % 0 mm
02:02 -10.7 °C -13.9 °C 34716.7 hPa NNW 26.9 km/h 26.9 km/h 68 % 0 mm
02:07 -10.7 °C -13.9 °C 34716.7 hPa North 23.8 km/h 23.8 km/h 68 % 0 mm
02:12 -10.8 °C -14 °C 34716.7 hPa North 23.8 km/h 23.8 km/h 68 % 0 mm
02:17 -10.7 °C -13.9 °C 34716.7 hPa North 20.9 km/h 20.9 km/h 68 % 0 mm
02:22 -10.7 °C -14.1 °C 34716.7 hPa North 25.9 km/h 25.9 km/h 67 % 0 mm
02:27 -10.7 °C -14.1 °C 34716.7 hPa North 23.8 km/h 23.8 km/h 67 % 0 mm
02:32 -10.7 °C -14.1 °C 34716.7 hPa North 26.9 km/h 26.9 km/h 67 % 0 mm
02:37 -10.7 °C -14.1 °C 34716.7 hPa North 20.9 km/h 20.9 km/h 67 % 0 mm
02:42 -10.7 °C -14.1 °C 34716.7 hPa North 23.8 km/h 23.8 km/h 67 % 0 mm
02:47 -10.7 °C -14.1 °C 34716.7 hPa NNW 23.8 km/h 23.8 km/h 67 % 0 mm
02:52 -10.8 °C -14.1 °C 34716.7 hPa NNE 23.8 km/h 23.8 km/h 67 % 0 mm
02:57 -10.8 °C -14.1 °C 34716.7 hPa NNE 29.8 km/h 29.8 km/h 67 % 0 mm
03:02 -10.9 °C -14.2 °C 34716.7 hPa North 29.8 km/h 29.8 km/h 67 % 0 mm
03:07 -10.9 °C -14.1 °C 34716.7 hPa North 23.8 km/h 23.8 km/h 68 % 0 mm
03:12 -10.9 °C -14.1 °C 34716.7 hPa North 23.8 km/h 23.8 km/h 68 % 0 mm
03:17 -10.9 °C -14.1 °C 34716.7 hPa North 26.9 km/h 26.9 km/h 68 % 0 mm
03:22 -10.9 °C -14.1 °C 34716.7 hPa North 29.8 km/h 29.8 km/h 68 % 0 mm
03:27 -10.9 °C -14.3 °C 34716.7 hPa North 23.8 km/h 23.8 km/h 67 % 0 mm
03:32 -11 °C -14.3 °C 34716.7 hPa North 26.9 km/h 26.9 km/h 67 % 0 mm
03:37 -10.9 °C -14.3 °C 34716.7 hPa North 26.9 km/h 26.9 km/h 67 % 0 mm
03:42 -11 °C -14.3 °C 34716.7 hPa North 26.9 km/h 26.9 km/h 67 % 0 mm
03:47 -11 °C -14.3 °C 34716.7 hPa North 26.9 km/h 26.9 km/h 67 % 0 mm
03:52 -11 °C -14.3 °C 34716.7 hPa NNW 29.8 km/h 29.8 km/h 67 % 0 mm
03:57 -11.1 °C -14.3 °C 34716.7 hPa North 23.8 km/h 23.8 km/h 67 % 0 mm
04:02 -11.1 °C -14.3 °C 34716.7 hPa NNW 23.8 km/h 23.8 km/h 67 % 0 mm
04:07 -11.1 °C -14.3 °C 34716.7 hPa North 26.9 km/h 26.9 km/h 67 % 0 mm
04:12 -11 °C -14.3 °C 34716.7 hPa North 20.9 km/h 20.9 km/h 67 % 0 mm
04:17 -11 °C -14.3 °C 34726.8 hPa North 20.9 km/h 20.9 km/h 67 % 0 mm
04:22 -11 °C -14.4 °C 34716.7 hPa North 20.9 km/h 20.9 km/h 66 % 0 mm
04:27 -11 °C -14.4 °C 34716.7 hPa North 20.9 km/h 20.9 km/h 66 % 0 mm
04:32 -11.1 °C -14.5 °C 34716.7 hPa North 18.2 km/h 18.2 km/h 66 % 0 mm
04:37 -11.1 °C -14.5 °C 34716.7 hPa North 23.8 km/h 23.8 km/h 66 % 0 mm
04:42 -11.1 °C -14.5 °C 34716.7 hPa NNW 23.8 km/h 23.8 km/h 66 % 0 mm
04:47 -11.1 °C -14.5 °C 34716.7 hPa NNW 26.9 km/h 26.9 km/h 66 % 0 mm
04:52 -11.1 °C -14.6 °C 34716.7 hPa North 26.9 km/h 26.9 km/h 66 % 0 mm
04:57 -11.2 °C -14.6 °C 34716.7 hPa North 26.9 km/h 26.9 km/h 66 % 0 mm
05:02 -11.2 °C -14.5 °C 34716.7 hPa North 20.9 km/h 20.9 km/h 67 % 0 mm
05:07 -11.2 °C -14.6 °C 34716.7 hPa North 23.8 km/h 23.8 km/h 67 % 0 mm
05:12 -11.2 °C -14.6 °C 34703.1 hPa North 23.8 km/h 23.8 km/h 67 % 0 mm
05:17 -11.2 °C -14.5 °C 34716.7 hPa North 29.8 km/h 29.8 km/h 67 % 0 mm
05:23 -11.2 °C -14.5 °C 34703.1 hPa NNW 26.9 km/h 26.9 km/h 67 % 0 mm
05:28 -11.2 °C -14.6 °C 34703.1 hPa North 23.8 km/h 23.8 km/h 67 % 0 mm
05:33 -11.2 °C -14.5 °C 34703.1 hPa NNW 26.9 km/h 26.9 km/h 67 % 0 mm
05:38 -11.2 °C -14.6 °C 34703.1 hPa North 26.9 km/h 26.9 km/h 66 % 0 mm
05:43 -11.2 °C -14.6 °C 34703.1 hPa North 26.9 km/h 26.9 km/h 66 % 0 mm
05:48 -11.2 °C -14.6 °C 34703.1 hPa North 26.9 km/h 26.9 km/h 66 % 0 mm
05:53 -11.2 °C -14.6 °C 34703.1 hPa North 23.8 km/h 23.8 km/h 66 % 0 mm
05:58 -11.2 °C -14.6 °C 34703.1 hPa North 25.9 km/h 25.9 km/h 66 % 0 mm
06:03 -11.1 °C -14.7 °C 34703.1 hPa North 26.9 km/h 26.9 km/h 65 % 0 mm
06:08 -11.1 °C -14.7 °C 34703.1 hPa North 23.8 km/h 23.8 km/h 65 % 0 mm
06:13 -11.2 °C -14.7 °C 34703.1 hPa North 26.9 km/h 26.9 km/h 65 % 0 mm
06:18 -11.2 °C -14.7 °C 34693 hPa NNW 23.8 km/h 23.8 km/h 65 % 0 mm
06:23 -11.2 °C -14.8 °C 34693 hPa North 23.8 km/h 23.8 km/h 64 % 0 mm
06:28 -11.2 °C -14.8 °C 34693 hPa NNW 26.9 km/h 26.9 km/h 64 % 0 mm
06:33 -11.2 °C -14.8 °C 34693 hPa NNW 20.9 km/h 20.9 km/h 64 % 0 mm
06:38 -11.2 °C -14.8 °C 34693 hPa North 20.9 km/h 20.9 km/h 64 % 0 mm
06:43 -11.2 °C -14.8 °C 34693 hPa North 23.8 km/h 23.8 km/h 64 % 0 mm
06:48 -11.2 °C -14.8 °C 34693 hPa North 23.8 km/h 23.8 km/h 64 % 0 mm
06:53 -11.2 °C -14.9 °C 34693 hPa North 26.9 km/h 26.9 km/h 64 % 0 mm
06:58 -11.2 °C -14.9 °C 34703.1 hPa North 20.9 km/h 20.9 km/h 64 % 0 mm
07:03 -11.2 °C -14.9 °C 34693 hPa NNW 20.9 km/h 20.9 km/h 63 % 0 mm
07:08 -11.2 °C -14.9 °C 34693 hPa NNW 20.9 km/h 20.9 km/h 63 % 0 mm
07:13 -11.1 °C -14.9 °C 34693 hPa North 15 km/h 15 km/h 63 % 0 mm
07:18 -11.1 °C -14.9 °C 34693 hPa NNW 18.2 km/h 18.2 km/h 63 % 0 mm
07:23 -11.1 °C -15.1 °C 34693 hPa NNW 20.9 km/h 20.9 km/h 62 % 0 mm
07:28 -11.1 °C -15 °C 34693 hPa North 17.9 km/h 17.9 km/h 62 % 0 mm
07:33 -11.2 °C -15 °C 34693 hPa North 18.2 km/h 18.2 km/h 63 % 0 mm
07:38 -11.3 °C -14.9 °C 34703.1 hPa North 25.9 km/h 25.9 km/h 64 % 0 mm
07:43 -11.3 °C -14.9 °C 34703.1 hPa North 20.8 km/h 20.8 km/h 64 % 0 mm
07:48 -11.3 °C -14.9 °C 34703.1 hPa North 20.9 km/h 20.9 km/h 64 % 0 mm
07:53 -11.3 °C -14.9 °C 34703.1 hPa North 20.9 km/h 20.9 km/h 64 % 0 mm
07:58 -11.3 °C -14.9 °C 34703.1 hPa North 20.9 km/h 20.9 km/h 64 % 0 mm
08:03 -11.3 °C -14.9 °C 34703.1 hPa North 12.9 km/h 12.9 km/h 64 % 0 mm
08:08 -11.2 °C -14.9 °C 34716.7 hPa North 17.9 km/h 17.9 km/h 64 % 0 mm
08:13 -11.2 °C -14.9 °C 34716.7 hPa North 23.8 km/h 23.8 km/h 64 % 0 mm
08:18 -11.2 °C -15 °C 34716.7 hPa NNW 12.9 km/h 12.9 km/h 63 % 0 mm
08:23 -11.2 °C -14.9 °C 34716.7 hPa North 15 km/h 15 km/h 63 % 0 mm
08:28 -11.2 °C -14.9 °C 34716.7 hPa NNW 17.9 km/h 17.9 km/h 63 % 0 mm
08:33 -11.1 °C -14.9 °C 34716.7 hPa North 20.9 km/h 20.9 km/h 63 % 0 mm
08:38 -11.1 °C -14.9 °C 34716.7 hPa NNW 18.2 km/h 18.2 km/h 63 % 0 mm
08:43 -11.1 °C -14.9 °C 34716.7 hPa North 18.2 km/h 18.2 km/h 63 % 0 mm
08:48 -11.1 °C -14.9 °C 34716.7 hPa North 15.6 km/h 15.6 km/h 63 % 0 mm
08:53 -11.1 °C -14.8 °C 34716.7 hPa NNW 17.9 km/h 17.9 km/h 64 % 0 mm
08:58 -11.1 °C -14.7 °C 34716.7 hPa North 20.9 km/h 20.9 km/h 64 % 0 mm
09:03 -10.9 °C -14.7 °C 34726.8 hPa NNW 23.8 km/h 23.8 km/h 63 % 0 mm
09:08 -10.9 °C -14.7 °C 34726.8 hPa NNW 20.9 km/h 20.9 km/h 63 % 0 mm
09:13 -10.7 °C -14.6 °C 34726.8 hPa North 23.8 km/h 23.8 km/h 63 % 0 mm
09:18 -10.7 °C -14.6 °C 34726.8 hPa NNW 23.8 km/h 23.8 km/h 62 % 0 mm
09:23 -10.6 °C -14.6 °C 34726.8 hPa North 17.9 km/h 17.9 km/h 62 % 0 mm
09:28 -10.5 °C -14.5 °C 34726.8 hPa North 18.2 km/h 18.2 km/h 62 % 0 mm
09:33 -10.4 °C -14.4 °C 34726.8 hPa North 20.9 km/h 20.9 km/h 62 % 0 mm
09:38 -10.4 °C -14.3 °C 34726.8 hPa North 20.8 km/h 20.8 km/h 62 % 0 mm
09:43 -10.3 °C -14.3 °C 34726.8 hPa NNW 15 km/h 15 km/h 62 % 0 mm
09:48 -10.3 °C -14.3 °C 34726.8 hPa NNW 11.9 km/h 11.9 km/h 62 % 0 mm
09:53 -10.2 °C -14.2 °C 34726.8 hPa NNW 9 km/h 9 km/h 62 % 0 mm
09:58 -10.2 °C -14.2 °C 34726.8 hPa North 15 km/h 15 km/h 62 % 0 mm
10:03 -10.1 °C -14.1 °C 34740.4 hPa NNW 15 km/h 15 km/h 62 % 0 mm
10:08 -10.1 °C -14.1 °C 34740.4 hPa North 17.9 km/h 17.9 km/h 62 % 0 mm
10:13 -9.9 °C -13.9 °C 34740.4 hPa NNW 15 km/h 15 km/h 62 % 0 mm
10:18 -9.8 °C -14 °C 34740.4 hPa NNW 20.9 km/h 20.9 km/h 61 % 0 mm
10:23 -9.7 °C -13.8 °C 34740.4 hPa North 17.9 km/h 17.9 km/h 61 % 0 mm
10:28 -9.6 °C -13.9 °C 34740.4 hPa North 10.3 km/h 10.3 km/h 60 % 0 mm
10:33 -9.5 °C -13.9 °C 34740.4 hPa NNE 11.9 km/h 11.9 km/h 59 % 0 mm
10:39 -9.4 °C -13.7 °C 34750.5 hPa NNE 9 km/h   60 % 0 mm
10:44 -9.3 °C -13.4 °C 34750.5 hPa NNW 7.7 km/h 7.7 km/h 61 % 0 mm
10:49 -9.2 °C -13.2 °C 34750.5 hPa NNW 6 km/h 6 km/h 62 % 0 mm
10:54 -9.2 °C -13.1 °C 34750.5 hPa West 9 km/h 9 km/h 63 % 0 mm
10:59 -9.2 °C -12.9 °C 34750.5 hPa West 6 km/h 6 km/h 64 % 0 mm
11:04 -9.1 °C -12.9 °C 34750.5 hPa West 6 km/h 6 km/h 64 % 0 mm
11:09 -9.1 °C -13 °C 34750.5 hPa WSW 9 km/h 9 km/h 63 % 0 mm
11:14 -9.1 °C -12.8 °C 34750.5 hPa Calm     64 % 0 mm
11:19 -9 °C -12.9 °C 34750.5 hPa WSW 9 km/h 9 km/h 63 % 0 mm
11:24 -8.9 °C -12.9 °C 34760.7 hPa WSW 6 km/h 6 km/h 62 % 0 mm
11:29 -8.8 °C -12.8 °C 34760.7 hPa WSW 9 km/h 9 km/h 63 % 0 mm
11:34 -8.8 °C -12.7 °C 34750.5 hPa WSW 9 km/h 9 km/h 64 % 0 mm
11:39 -8.8 °C -12.6 °C 34750.5 hPa WSW 9 km/h 9 km/h 64 % 0 mm
11:44 -8.8 °C -12.6 °C 34750.5 hPa WSW 12.9 km/h 12.9 km/h 64 % 0 mm
11:49 -8.8 °C -12.7 °C 34750.5 hPa WSW 9 km/h 9 km/h 63 % 0 mm
11:54 -8.8 °C -12.8 °C 34750.5 hPa WSW 9 km/h 9 km/h 63 % 0 mm
11:59 -8.8 °C -12.4 °C 34750.5 hPa WSW 12.9 km/h 12.9 km/h 65 % 0 mm
12:04 -8.7 °C -12.3 °C 34750.5 hPa WSW 12.9 km/h 12.9 km/h 66 % 0 mm
12:09 -8.7 °C -12.3 °C 34750.5 hPa WSW 12.9 km/h 12.9 km/h 66 % 0 mm
12:14 -8.7 °C -12.4 °C 34750.5 hPa WSW 12.9 km/h 12.9 km/h 65 % 0 mm
12:19 -8.7 °C -12.4 °C 34750.5 hPa WSW 15 km/h 15 km/h 65 % 0 mm
12:24 -8.7 °C -12.3 °C 34740.4 hPa WSW 17.9 km/h 17.9 km/h 66 % 0 mm
12:29 -8.7 °C -12.4 °C 34740.4 hPa SW 18.2 km/h 18.2 km/h 65 % 0 mm
12:34 -8.7 °C -12.3 °C 34740.4 hPa WSW 17.9 km/h 17.9 km/h 66 % 0 mm
12:39 -8.8 °C -12.4 °C 34740.4 hPa WSW 17.9 km/h 17.9 km/h 65 % 0 mm
12:44 -8.7 °C -12.4 °C 34740.4 hPa WSW 12.9 km/h 12.9 km/h 65 % 0 mm
12:49 -8.7 °C -12.4 °C 34740.4 hPa WSW 11.9 km/h 11.9 km/h 65 % 0 mm
12:54 -8.7 °C -12.5 °C 34726.8 hPa SW 15 km/h 15 km/h 64 % 0 mm
12:59 -8.7 °C -12.4 °C 34726.8 hPa WSW 11.9 km/h 11.9 km/h 64 % 0 mm
13:04 -8.7 °C -12.6 °C 34726.8 hPa WSW 9 km/h 9 km/h 63 % 0 mm
13:09 -8.6 °C -12.3 °C 34716.7 hPa SW 10.3 km/h 10.3 km/h 64 % 0 mm
13:14 -8.5 °C -12.2 °C 34716.7 hPa SW 9 km/h 9 km/h 65 % 0 mm
13:19 -8.4 °C -11.7 °C 34703.1 hPa SW 9 km/h 9 km/h 68 % 0 mm
13:24 -8.3 °C -11.6 °C 34703.1 hPa SW 9 km/h 9 km/h 68 % 0 mm
13:29 -8.2 °C -11.4 °C 34703.1 hPa SW 9 km/h 9 km/h 69 % 0 mm
13:34 -8.1 °C -11.3 °C 34703.1 hPa SW 6 km/h 6 km/h 69 % 0 mm
13:39 -8.1 °C -11.2 °C 34703.1 hPa SW 9 km/h 9 km/h 70 % 0 mm
13:44 -8.2 °C -11.3 °C 34703.1 hPa SW 9 km/h 9 km/h 69 % 0 mm
13:49 -8 °C -11.1 °C 34703.1 hPa SW 9 km/h 9 km/h 70 % 0 mm
13:54 -7.9 °C -11 °C 34693 hPa Calm     70 % 0 mm
13:59 -8 °C -11.1 °C 34693 hPa SW 3.1 km/h 3.1 km/h 70 % 0 mm
14:04 -8 °C -11.1 °C 34693 hPa Calm     70 % 0 mm
14:09 -7.9 °C -11.2 °C 34693 hPa Calm     69 % 0 mm
14:14 -8 °C -11.2 °C 34682.8 hPa SW 3.1 km/h 3.1 km/h 69 % 0 mm
14:19 -8.2 °C -11.2 °C 34682.8 hPa SW 6 km/h 6 km/h 70 % 0 mm
14:24 -8.2 °C -11.2 °C 34682.8 hPa SW 2.6 km/h 2.6 km/h 70 % 0 mm
14:29 -8.3 °C -11.3 °C 34682.8 hPa SW 6 km/h 6 km/h 71 % 0 mm
14:34 -8.4 °C -11.3 °C 34669.3 hPa SW 6 km/h 6 km/h 71 % 0 mm
14:39 -8.3 °C -11.3 °C 34669.3 hPa Calm     71 % 0 mm
14:44 -8.2 °C -11.7 °C 34669.3 hPa Calm     67 % 0 mm
14:49 -8.2 °C -11.4 °C 34669.3 hPa SW 6 km/h 6 km/h 69 % 0 mm
14:54 -8.3 °C -11.5 °C 34669.3 hPa SW 3.1 km/h 3.1 km/h 69 % 0 mm
14:59 -8.3 °C -11.6 °C 34669.3 hPa SW 3.1 km/h 3.1 km/h 68 % 0 mm
15:04 -8.3 °C -11.5 °C 34669.3 hPa SW 6 km/h 6 km/h 69 % 0 mm
15:09 -8.3 °C -11.3 °C 34669.3 hPa SW 3.1 km/h   70 % 0 mm
15:14 -8.3 °C -11.3 °C 34659.1 hPa SW 3.1 km/h 3.1 km/h 70 % 0 mm
15:19 -8.1 °C -11.3 °C 34659.1 hPa Calm     69 % 0 mm
15:24 -7.9 °C -11.9 °C 34659.1 hPa Calm     63 % 0 mm
15:29 -7.7 °C -11.8 °C 34659.1 hPa Calm     62 % 0 mm
15:34 -7.6 °C -12.6 °C 34659.1 hPa SW 6 km/h 6 km/h 56 % 0 mm
15:40 -7.4 °C -12.7 °C 34659.1 hPa SW 6 km/h 6 km/h 54 % 0 mm
15:45 -7.4 °C -12.8 °C 34659.1 hPa SW 6 km/h 6 km/h 53 % 0 mm
15:50 -7.3 °C -12.7 °C 34659.1 hPa SW 6 km/h 6 km/h 53 % 0 mm
15:55 -7.3 °C -12.6 °C 34659.1 hPa SW 5.1 km/h 5.1 km/h 54 % 0 mm
16:00 -7.6 °C -12.3 °C 34659.1 hPa SW 9 km/h 9 km/h 58 % 0 mm
16:05 -7.7 °C -12.6 °C 34659.1 hPa SW 3.1 km/h   57 % 0 mm
16:10 -7.7 °C -12.8 °C 34659.1 hPa Calm     55 % 0 mm
16:15 -7.6 °C -12.4 °C 34659.1 hPa SW 5.1 km/h 7.7 km/h 57 % 0 mm
16:20 -7.8 °C -12.8 °C 34659.1 hPa SSE 6 km/h 6 km/h 56 % 0 mm
16:25 -7.9 °C -12.7 °C 34659.1 hPa Calm   5.1 km/h 57 % 0 mm
16:30 -7.8 °C -12.8 °C 34645.6 hPa Calm   0.3 km/h 56 % 0 mm
16:35 -7.8 °C -13.1 °C 34645.6 hPa Calm   2.6 km/h 54 % 0 mm
16:40 -7.7 °C -13.2 °C 34659.1 hPa SSE 2.6 km/h 5.1 km/h 53 % 0 mm
16:45 -7.8 °C -13.4 °C 34659.1 hPa SSE 6 km/h 6 km/h 52 % 0 mm
16:50 -7.8 °C -13.7 °C 34659.1 hPa Calm     50 % 0 mm
16:55 -7.7 °C -13.6 °C 34659.1 hPa SSE 2.6 km/h 5.1 km/h 50 % 0 mm
17:00 -7.7 °C -13.4 °C 34659.1 hPa SSE 6 km/h 6 km/h 51 % 0 mm
17:05 -7.7 °C -13.8 °C 34659.1 hPa Calm     49 % 0 mm
17:10 -7.7 °C -13.6 °C 34645.6 hPa Calm     50 % 0 mm
17:15 -7.6 °C -13.4 °C 34645.6 hPa Calm     51 % 0 mm
17:20 -7.4 °C -13.2 °C 34645.6 hPa Calm     51 % 0 mm
17:25 -7.3 °C -13.2 °C 34659.1 hPa Calm     50 % 0 mm
17:30 -7.3 °C -13.4 °C 34645.6 hPa Calm     49 % 0 mm
17:35 -7.3 °C -13.2 °C 34659.1 hPa Calm     50 % 0 mm
17:40 -7.3 °C -13.5 °C 34659.1 hPa Calm     48 % 0 mm
17:45 -7.4 °C -13.5 °C 34659.1 hPa SSE 3.1 km/h   49 % 0 mm
17:50 -7.6 °C -13.4 °C 34659.1 hPa Calm     50 % 0 mm
17:55 -7.6 °C -13 °C 34659.1 hPa Calm     53 % 0 mm
18:00 -7.7 °C -13.2 °C 34645.6 hPa Calm     52 % 0 mm
18:05 -7.7 °C -13.1 °C 34645.6 hPa Calm     53 % 0 mm
18:10 -7.8 °C -12.1 °C 34645.6 hPa Calm     61 % 0 mm
18:15 -8 °C -13.4 °C 34645.6 hPa Calm     53 % 0 mm
18:20 -8.1 °C -12.9 °C 34645.6 hPa SSE 10.3 km/h 10.3 km/h 57 % 0 mm
18:25 -8.4 °C -13 °C 34645.6 hPa North 11.9 km/h 11.9 km/h 58 % 0 mm
18:30 -8.6 °C -13.1 °C 34645.6 hPa North 15 km/h 15 km/h 59 % 0 mm
18:35 -8.8 °C -13.1 °C 34645.6 hPa North 15 km/h 15 km/h 60 % 0 mm
18:40 -8.9 °C -13.1 °C 34659.1 hPa North 12.9 km/h 15.6 km/h 61 % 0 mm
18:45 -9.1 °C -12.9 °C 34659.1 hPa North 18.2 km/h 18.2 km/h 63 % 0 mm
18:50 -9.2 °C -12.8 °C 34659.1 hPa North 23.8 km/h 23.8 km/h 65 % 0 mm
18:55 -9.3 °C -12.9 °C 34659.1 hPa North 23.8 km/h 23.8 km/h 66 % 0 mm
19:00 -9.5 °C -12.7 °C 34659.1 hPa North 20.9 km/h 20.9 km/h 68 % 0 mm
19:05 -9.6 °C -12.7 °C 34659.1 hPa North 20.9 km/h 20.9 km/h 69 % 0 mm
19:10 -9.6 °C -12.7 °C 34659.1 hPa North 20.9 km/h 20.9 km/h 69 % 0 mm
19:15 -9.6 °C -12.7 °C 34659.1 hPa NNW 20.9 km/h 20.9 km/h 69 % 0 mm
19:20 -9.6 °C -12.7 °C 34659.1 hPa NNW 20.9 km/h 20.9 km/h 69 % 0 mm
19:25 -9.6 °C -12.7 °C 34659.1 hPa NNW 20.9 km/h 20.9 km/h 69 % 0 mm
19:30 -9.6 °C -12.7 °C 34659.1 hPa North 15 km/h 15 km/h 69 % 0 mm
19:35 -9.6 °C -12.7 °C 34659.1 hPa North 17.9 km/h 17.9 km/h 69 % 0 mm
19:40 -9.6 °C -12.7 °C 34659.1 hPa North 17.9 km/h 17.9 km/h 69 % 0 mm
19:45 -9.6 °C -12.7 °C 34659.1 hPa North 23.8 km/h 23.8 km/h 69 % 0 mm
19:50 -9.6 °C -12.7 °C 34659.1 hPa NNW 17.9 km/h 17.9 km/h 69 % 0 mm
19:55 -9.6 °C -12.8 °C 34659.1 hPa North 23.8 km/h 23.8 km/h 68 % 0 mm
20:00 -9.6 °C -12.8 °C 34659.1 hPa North 17.9 km/h 17.9 km/h 68 % 0 mm
20:05 -9.6 °C -12.8 °C 34659.1 hPa North 23.8 km/h 23.8 km/h 68 % 0 mm
20:10 -9.6 °C -12.8 °C 34669.3 hPa North 23.8 km/h 23.8 km/h 68 % 0 mm
20:15 -9.6 °C -12.8 °C 34669.3 hPa North 23.8 km/h 23.8 km/h 68 % 0 mm
20:20 -9.6 °C -12.8 °C 34669.3 hPa NNW 23.8 km/h 23.8 km/h 68 % 0 mm
20:25 -9.6 °C -12.7 °C 34669.3 hPa North 25.9 km/h 25.9 km/h 69 % 0 mm
20:30 -9.6 °C -12.7 °C 34669.3 hPa North 23.8 km/h 23.8 km/h 69 % 0 mm
20:35 -9.6 °C -12.7 °C 34669.3 hPa North 23.8 km/h 23.8 km/h 69 % 0 mm
20:40 -9.7 °C -12.8 °C 34669.3 hPa North 25.9 km/h 25.9 km/h 69 % 0 mm
20:45 -9.6 °C -12.7 °C 34669.3 hPa North 23.8 km/h 23.8 km/h 69 % 0 mm
20:50 -9.6 °C -12.7 °C 34669.3 hPa NNW 23.8 km/h 23.8 km/h 69 % 0 mm
20:55 -9.6 °C -12.7 °C 34669.3 hPa North 20.9 km/h 20.9 km/h 69 % 0 mm
21:00 -9.6 °C -12.8 °C 34669.3 hPa North 17.9 km/h 17.9 km/h 68 % 0 mm
21:05 -9.6 °C -12.8 °C 34669.3 hPa North 23.3 km/h 23.3 km/h 68 % 0 mm
21:10 -9.6 °C -12.8 °C 34669.3 hPa North 15 km/h 15 km/h 68 % 0 mm
21:15 -9.5 °C -12.9 °C 34669.3 hPa North 15 km/h 15 km/h 67 % 0 mm
21:21 -9.6 °C -12.9 °C 34669.3 hPa North 15 km/h 15 km/h 67 % 0 mm
21:26 -9.6 °C -12.8 °C 34669.3 hPa North 20.9 km/h 20.9 km/h 68 % 0 mm
21:31 -9.6 °C -12.8 °C 34669.3 hPa North 17.9 km/h 17.9 km/h 68 % 0 mm
21:36 -9.6 °C -12.8 °C 34669.3 hPa North 17.9 km/h 17.9 km/h 68 % 0 mm
21:41 -9.5 °C -12.9 °C 34669.3 hPa North 23.8 km/h 23.8 km/h 67 % 0 mm
21:46 -9.5 °C -12.9 °C 34669.3 hPa North 26.9 km/h 26.9 km/h 67 % 0 mm
21:51 -9.5 °C -12.9 °C 34669.3 hPa North 23.8 km/h 23.8 km/h 67 % 0 mm
21:56 -9.5 °C -12.9 °C 34669.3 hPa North 17.9 km/h 17.9 km/h 67 % 0 mm
22:01 -9.5 °C -12.7 °C 34669.3 hPa North 11.9 km/h 11.9 km/h 68 % 0 mm
22:06 -9.3 °C -12.6 °C 34669.3 hPa North 17.9 km/h 17.9 km/h 68 % 0 mm
22:11 -9.2 °C -12.6 °C 34669.3 hPa NNW 15 km/h 15 km/h 67 % 0 mm
22:16 -9.3 °C -12.8 °C 34669.3 hPa NNE 12.9 km/h 12.9 km/h 66 % 0 mm
22:21 -9.3 °C -12.8 °C 34669.3 hPa NNE 17.9 km/h 17.9 km/h 66 % 0 mm
22:26 -9.3 °C -12.7 °C 34659.1 hPa North 15 km/h 15 km/h 67 % 0 mm
22:31 -9.3 °C -12.7 °C 34659.1 hPa North 17.9 km/h 17.9 km/h 67 % 0 mm
22:36 -9.2 °C -12.6 °C 34659.1 hPa NNW 15 km/h 15 km/h 67 % 0 mm
22:41 -9.1 °C -12.6 °C 34659.1 hPa North 11.9 km/h 11.9 km/h 67 % 0 mm
22:46 -8.8 °C -12.4 °C 34659.1 hPa NE 6 km/h 6 km/h 66 % 0 mm
22:51 -8.8 °C -12.3 °C 34659.1 hPa Calm     67 % 0 mm
22:56 -8.9 °C -12.2 °C 34659.1 hPa Calm     68 % 0 mm
23:01 -8.9 °C -12.1 °C 34659.1 hPa Calm     69 % 0 mm
23:06 -8.9 °C -12.2 °C 34659.1 hPa West 9 km/h 9 km/h 68 % 0 mm
23:11 -8.9 °C -12.3 °C 34659.1 hPa Calm     67 % 0 mm
23:16 -8.8 °C -12.2 °C 34659.1 hPa Calm     67 % 0 mm
23:21 -8.9 °C -11.8 °C 34659.1 hPa East 15.6 km/h 15.6 km/h 71 % 0 mm
23:26 -9.1 °C -11.8 °C 34659.1 hPa East 9 km/h 9 km/h 73 % 0 mm
23:31 -9.1 °C -11.7 °C 34659.1 hPa Calm     74 % 0 mm
23:36 -9.1 °C -11.6 °C 34659.1 hPa Calm     75 % 0 mm
23:41 -9.1 °C -11.6 °C 34659.1 hPa East 7.7 km/h 7.7 km/h 75 % 0 mm
23:46 -9.1 °C -11.6 °C 34659.1 hPa East 11.9 km/h 11.9 km/h 75 % 0 mm
23:54 -9.2 °C -11.8 °C 34659.1 hPa North 5.1 km/h 5.1 km/h 74 % 0 mm
Puerto Banus, Marbella
Elogios de Weather Underground - 2.5 mb

Guión original por  Jim McMurry - jmcmurry@mwt.net Adaptado para la plantilla por  Wim van der Kuil - Leuven-Template.eu

Usted encontrará nuestra información del tiempo también en:

Weather Underground

Iberian Peninsula Weather Network